aviador You're here:

OIIE Decoded Metar

ABYEK in IRAN
Report Time2017-08-18 14:00:00
UTC Time2017-08-18 14:16:18
Flight Rules vfr VFR
WindCalm
Visibility9999 m
Phenomena:N/A
Clouds:Few 040 Hf
Expected CloudBase > 14,800 ft AGL from Temp-Dew spread
CeilingNone
Temp38°C (ISA +30)
Dew Point01°C (10% RH)
Heat Index35.1°C
AAT36.2°C
QNH1008 hPa
Density Alt6,864 ft
Elevation3,304 ft
Report Wrong Elevation
Raw Report
OIIE 181400Z 00000KT 9999 FEW040 38/01 Q1008 NOSIG=

Extra information for OIIE:More info

Metar Taf Metar & Taf Last 4 Metars F.Rules Stats Wind Profile Meteogram Temp Stats Airport Information Weather charts Add Link Nearby VenuesMetar ALERT Operation Metar Decoded Social comments